createdAt,value
2016-12-02T00:00:04.211Z,73531
2016-12-02T00:00:13.227Z,73530
2016-12-02T00:00:21.892Z,73524
2016-12-02T00:00:30.631Z,73519
2016-12-02T00:00:39.318Z,73508
2016-12-02T00:00:48.033Z,73494
2016-12-02T00:00:56.738Z,73512
2016-12-02T00:01:05.434Z,73514
2016-12-02T00:01:14.135Z,73524
2016-12-02T00:01:22.845Z,73493
2016-12-02T00:01:31.588Z,73484
2016-12-02T00:01:40.283Z,73496
2016-12-02T00:01:49.032Z,73508
2016-12-02T00:01:57.734Z,73522
2016-12-02T00:02:06.479Z,73542
2016-12-02T00:02:15.222Z,73527
2016-12-02T00:02:24.260Z,73525
2016-12-02T00:02:32.970Z,73519
2016-12-02T00:02:41.680Z,73523
2016-12-02T00:02:50.423Z,73505
2016-12-02T00:02:59.126Z,73510
2016-12-02T00:03:07.815Z,73526
2016-12-02T00:03:16.802Z,73517
2016-12-02T00:03:25.534Z,73518
2016-12-02T00:03:34.251Z,73519
2016-12-02T00:03:42.954Z,73517
2016-12-02T00:03:51.664Z,73528
2016-12-02T00:04:00.384Z,73512
2016-12-02T00:04:09.108Z,73493
2016-12-02T00:04:17.810Z,73475
2016-12-02T00:04:26.528Z,73491
2016-12-02T00:04:35.286Z,73496
2016-12-02T00:04:44.047Z,73495
2016-12-02T00:04:52.761Z,73490
2016-12-02T00:05:01.495Z,73502
2016-12-02T00:05:10.228Z,73508
2016-12-02T00:05:18.948Z,73508
2016-12-02T00:05:27.720Z,73493
2016-12-02T00:05:36.446Z,73494
2016-12-02T00:05:45.189Z,73496
2016-12-02T00:05:53.925Z,73511
2016-12-02T00:06:02.626Z,73522
2016-12-02T00:06:11.332Z,73527
2016-12-02T00:06:20.049Z,73512
2016-12-02T00:06:28.758Z,73502
2016-12-02T00:06:37.513Z,73491
2016-12-02T00:06:46.231Z,73487
2016-12-02T00:06:54.938Z,73501
2016-12-02T00:07:03.665Z,73511
2016-12-02T00:07:12.428Z,73499
2016-12-02T00:07:21.109Z,73488
2016-12-02T00:07:29.804Z,73489
2016-12-02T00:07:38.514Z,73488
2016-12-02T00:07:47.212Z,73481
2016-12-02T00:07:55.894Z,73499
2016-12-02T00:08:04.612Z,73501
2016-12-02T00:08:13.343Z,73495
2016-12-02T00:08:22.048Z,73508
2016-12-02T00:08:30.787Z,73504
2016-12-02T00:08:39.496Z,73510
2016-12-02T00:08:48.185Z,73524
2016-12-02T00:08:56.919Z,73495
2016-12-02T00:09:05.665Z,73498
2016-12-02T00:09:14.682Z,73511
2016-12-02T00:09:23.374Z,73498
2016-12-02T00:09:32.120Z,73503
2016-12-02T00:09:40.838Z,73500
2016-12-02T00:09:49.526Z,73510
2016-12-02T00:09:58.209Z,73515
2016-12-02T00:10:06.909Z,73507
2016-12-02T00:10:15.614Z,73513
2016-12-02T00:10:24.340Z,73520
2016-12-02T00:10:33.036Z,73525
2016-12-02T00:10:41.728Z,73515
2016-12-02T00:10:50.420Z,73513
2016-12-02T00:10:59.126Z,73511
2016-12-02T00:11:07.862Z,73521
2016-12-02T00:11:16.908Z,73516
2016-12-02T00:11:25.604Z,73510
2016-12-02T00:11:34.353Z,73537
2016-12-02T00:11:43.077Z,73526
2016-12-02T00:11:51.809Z,73537
2016-12-02T00:12:00.488Z,73529
2016-12-02T00:12:09.218Z,73536
2016-12-02T00:12:17.926Z,73540
2016-12-02T00:12:26.653Z,73524
2016-12-02T00:12:35.326Z,73517
2016-12-02T00:12:44.049Z,73508
2016-12-02T00:12:52.735Z,73515
2016-12-02T00:13:01.401Z,73502
2016-12-02T00:13:10.128Z,73511
2016-12-02T00:13:18.845Z,73514
2016-12-02T00:13:27.568Z,73510
2016-12-02T00:13:36.283Z,73504
2016-12-02T00:13:44.950Z,73498
2016-12-02T00:13:53.686Z,73505
2016-12-02T00:14:02.395Z,73482
2016-12-02T00:14:11.133Z,73467
2016-12-02T00:14:19.841Z,73482
2016-12-02T00:14:28.864Z,73510
2016-12-02T00:14:37.612Z,73520
2016-12-02T00:14:46.360Z,73512
2016-12-02T00:14:55.041Z,73510
2016-12-02T00:15:03.730Z,73452
2016-12-02T00:15:12.436Z,73375
2016-12-02T00:15:21.147Z,73439
2016-12-02T00:15:29.832Z,73473
2016-12-02T00:15:38.592Z,73496
2016-12-02T00:15:47.317Z,73518
2016-12-02T00:15:56.021Z,73511
2016-12-02T00:16:04.744Z,73507
2016-12-02T00:16:13.420Z,73495
2016-12-02T00:16:22.140Z,73495
2016-12-02T00:16:30.854Z,73482
2016-12-02T00:16:39.569Z,73480
2016-12-02T00:16:48.266Z,73477
2016-12-02T00:16:56.977Z,73482
2016-12-02T00:17:05.696Z,73465
2016-12-02T00:17:14.459Z,73455
2016-12-02T00:17:23.190Z,73470
2016-12-02T00:17:31.919Z,73493
2016-12-02T00:17:40.633Z,73492
2016-12-02T00:17:49.365Z,73476
2016-12-02T00:17:58.085Z,73478
2016-12-02T00:18:06.850Z,73478
2016-12-02T00:18:15.532Z,73490
2016-12-02T00:18:24.232Z,73510
2016-12-02T00:18:32.935Z,73464
2016-12-02T00:18:41.655Z,73462
2016-12-02T00:18:50.311Z,73467
2016-12-02T00:18:59.012Z,73470
2016-12-02T00:19:07.713Z,73463
2016-12-02T00:19:16.417Z,73468
2016-12-02T00:19:25.094Z,73491
2016-12-02T00:19:33.792Z,73516
2016-12-02T00:19:42.518Z,73512
2016-12-02T00:19:51.557Z,73506
2016-12-02T00:20:00.284Z,73509
2016-12-02T00:20:09.014Z,73465
2016-12-02T00:20:17.730Z,73462
2016-12-02T00:20:26.416Z,73471
2016-12-02T00:20:35.098Z,73476
2016-12-02T00:20:43.798Z,73454
2016-12-02T00:20:52.507Z,73464
2016-12-02T00:21:01.222Z,73479
2016-12-02T00:21:09.955Z,73493
2016-12-02T00:21:18.652Z,73504
2016-12-02T00:21:27.356Z,73516
2016-12-02T00:21:36.050Z,73499
2016-12-02T00:21:44.790Z,73496
2016-12-02T00:21:53.511Z,73508
2016-12-02T00:22:02.210Z,73509
2016-12-02T00:22:11.227Z,73493
2016-12-02T00:22:19.964Z,73494
2016-12-02T00:22:28.731Z,73471
2016-12-02T00:22:37.432Z,73490
2016-12-02T00:22:46.155Z,73508
2016-12-02T00:22:54.883Z,73509
2016-12-02T00:23:03.600Z,73504
2016-12-02T00:23:12.308Z,73509
2016-12-02T00:23:21.024Z,73507
2016-12-02T00:23:29.752Z,73516
2016-12-02T00:23:38.431Z,73501
2016-12-02T00:23:47.154Z,73516
2016-12-02T00:23:55.856Z,73515
2016-12-02T00:24:04.598Z,73488
2016-12-02T00:24:13.324Z,73484
2016-12-02T00:24:22.046Z,73487
2016-12-02T00:24:30.781Z,73494
2016-12-02T00:24:39.483Z,73518
2016-12-02T00:24:48.185Z,73530
2016-12-02T00:24:56.910Z,73481
2016-12-02T00:25:05.622Z,73494
2016-12-02T00:25:14.396Z,73504
2016-12-02T00:25:23.114Z,73484
2016-12-02T00:25:31.838Z,73494
2016-12-02T00:25:40.518Z,73505
2016-12-02T00:25:49.282Z,73509
2016-12-02T00:25:58.046Z,73498
2016-12-02T00:26:06.768Z,73486
2016-12-02T00:26:15.471Z,73477
2016-12-02T00:26:24.216Z,73504
2016-12-02T00:26:32.917Z,73505
2016-12-02T00:26:41.579Z,73479
2016-12-02T00:26:50.283Z,73483
2016-12-02T00:26:58.989Z,73496
2016-12-02T00:27:07.663Z,73496
2016-12-02T00:27:16.349Z,73486
2016-12-02T00:27:25.003Z,73498
2016-12-02T00:27:33.995Z,73500
2016-12-02T00:27:42.716Z,73524
2016-12-02T00:27:51.416Z,73502
2016-12-02T00:28:00.123Z,73525
2016-12-02T00:28:08.845Z,73487
2016-12-02T00:28:17.870Z,73501
2016-12-02T00:28:26.604Z,73491
2016-12-02T00:28:35.321Z,73513
2016-12-02T00:28:44.050Z,73509
2016-12-02T00:28:52.775Z,73489
2016-12-02T00:29:01.800Z,73502
2016-12-02T00:29:10.508Z,73516
2016-12-02T00:29:19.201Z,73526
2016-12-02T00:29:27.945Z,73524
2016-12-02T00:29:36.640Z,73516
2016-12-02T00:29:45.300Z,73504
2016-12-02T00:29:54.000Z,73497
2016-12-02T00:30:02.683Z,73477
2016-12-02T00:30:11.347Z,73468
2016-12-02T00:30:20.032Z,73496
2016-12-02T00:30:28.733Z,73489
2016-12-02T00:30:37.417Z,73478
2016-12-02T00:30:46.169Z,73480
2016-12-02T00:30:54.892Z,73481
2016-12-02T00:31:03.580Z,73471
2016-12-02T00:31:12.301Z,73460
2016-12-02T00:31:21.067Z,73463
2016-12-02T00:31:29.801Z,73482
2016-12-02T00:31:38.547Z,73493
2016-12-02T00:31:47.280Z,73468
2016-12-02T00:31:55.999Z,73463
2016-12-02T00:32:04.742Z,73488
2016-12-02T00:32:13.438Z,73504
2016-12-02T00:32:22.188Z,73510
2016-12-02T00:32:30.896Z,73513
2016-12-02T00:32:39.565Z,73465
2016-12-02T00:32:48.292Z,73477
2016-12-02T00:32:56.992Z,73501
2016-12-02T00:33:05.674Z,73492
2016-12-02T00:33:14.665Z,73489
2016-12-02T00:33:23.389Z,73518
2016-12-02T00:33:32.101Z,73505
2016-12-02T00:33:40.806Z,73486
2016-12-02T00:33:49.511Z,73492
2016-12-02T00:33:58.226Z,73500
2016-12-02T00:34:06.930Z,73499
2016-12-02T00:34:15.638Z,73496
2016-12-02T00:34:24.358Z,73481
2016-12-02T00:34:33.098Z,73485
2016-12-02T00:34:41.800Z,73505
2016-12-02T00:34:50.526Z,73514
2016-12-02T00:34:59.240Z,73501
2016-12-02T00:35:07.942Z,73477
2016-12-02T00:35:16.607Z,73461
2016-12-02T00:35:25.343Z,73485
2016-12-02T00:35:34.039Z,73496
2016-12-02T00:35:42.768Z,73509
2016-12-02T00:35:51.531Z,73520
2016-12-02T00:36:00.198Z,73504
2016-12-02T00:36:08.931Z,73472
2016-12-02T00:36:17.622Z,73454
2016-12-02T00:36:26.322Z,73428
2016-12-02T00:36:35.040Z,73466
2016-12-02T00:36:44.059Z,73488
2016-12-02T00:36:52.749Z,73496
2016-12-02T00:37:01.446Z,73513
2016-12-02T00:37:10.193Z,73511
2016-12-02T00:37:19.205Z,73484
2016-12-02T00:37:27.870Z,73466
2016-12-02T00:37:36.602Z,73463
2016-12-02T00:37:45.316Z,73470
2016-12-02T00:37:54.041Z,73472
2016-12-02T00:38:02.758Z,73456
2016-12-02T00:38:11.421Z,73479
2016-12-02T00:38:20.105Z,73480
2016-12-02T00:38:28.828Z,73459
2016-12-02T00:38:37.524Z,73459
2016-12-02T00:38:46.250Z,73470
2016-12-02T00:38:55.011Z,73481
2016-12-02T00:39:03.765Z,73485
2016-12-02T00:39:12.453Z,73472
2016-12-02T00:39:21.155Z,73475
2016-12-02T00:39:29.876Z,73519
2016-12-02T00:39:38.629Z,73510
2016-12-02T00:39:47.357Z,73478
2016-12-02T00:39:56.350Z,73459
2016-12-02T00:40:05.079Z,73462
2016-12-02T00:40:13.834Z,73479
2016-12-02T00:40:22.533Z,73504
2016-12-02T00:40:31.229Z,73502
2016-12-02T00:40:39.941Z,73487
2016-12-02T00:40:48.637Z,73459
2016-12-02T00:40:57.348Z,73470
2016-12-02T00:41:06.024Z,73480
2016-12-02T00:41:14.743Z,73472
2016-12-02T00:41:23.447Z,73486
2016-12-02T00:41:32.174Z,73467
2016-12-02T00:41:40.857Z,73465
2016-12-02T00:41:49.567Z,73485
2016-12-02T00:41:58.288Z,73500
2016-12-02T00:42:06.995Z,73508
2016-12-02T00:42:15.701Z,73481
2016-12-02T00:42:24.458Z,73494
2016-12-02T00:42:33.479Z,73491
2016-12-02T00:42:42.179Z,73462
2016-12-02T00:42:50.881Z,73490
2016-12-02T00:42:59.616Z,73507
2016-12-02T00:43:08.629Z,73497
2016-12-02T00:43:17.617Z,73469
2016-12-02T00:43:26.375Z,73466
2016-12-02T00:43:35.073Z,73476
2016-12-02T00:43:43.798Z,73493
2016-12-02T00:43:52.519Z,73509
2016-12-02T00:44:01.242Z,73513
2016-12-02T00:44:09.946Z,73460
2016-12-02T00:44:18.635Z,73447
2016-12-02T00:44:27.331Z,73448
2016-12-02T00:44:36.037Z,73467
2016-12-02T00:44:44.737Z,73481
2016-12-02T00:44:53.465Z,73471
2016-12-02T00:45:02.149Z,73432
2016-12-02T00:45:10.853Z,73432
2016-12-02T00:45:19.555Z,73442
2016-12-02T00:45:28.283Z,73467
2016-12-02T00:45:36.984Z,73444
2016-12-02T00:45:45.707Z,73449
2016-12-02T00:45:54.411Z,73478
2016-12-02T00:46:03.095Z,73474
2016-12-02T00:46:11.825Z,73485
2016-12-02T00:46:20.527Z,73481
2016-12-02T00:46:29.229Z,73497
2016-12-02T00:46:37.913Z,73459
2016-12-02T00:46:46.635Z,73435
2016-12-02T00:46:55.334Z,73440
2016-12-02T00:47:03.999Z,73443
2016-12-02T00:47:12.725Z,73470
2016-12-02T00:47:21.470Z,73452
2016-12-02T00:47:30.197Z,73456
2016-12-02T00:47:38.896Z,73464
2016-12-02T00:47:47.598Z,73444
2016-12-02T00:47:56.346Z,73468
2016-12-02T00:48:05.043Z,73476
2016-12-02T00:48:13.770Z,73490
2016-12-02T00:48:22.479Z,73460
2016-12-02T00:48:31.218Z,73458
2016-12-02T00:48:39.958Z,73486
2016-12-02T00:48:48.656Z,73499
2016-12-02T00:48:57.326Z,73483
2016-12-02T00:49:06.010Z,73449
2016-12-02T00:49:14.740Z,73463
2016-12-02T00:49:23.436Z,73482
2016-12-02T00:49:32.146Z,73494
2016-12-02T00:49:40.881Z,73475
2016-12-02T00:49:49.564Z,73494
2016-12-02T00:49:58.271Z,73491
2016-12-02T00:50:06.984Z,73451
2016-12-02T00:50:15.717Z,73463
2016-12-02T00:50:24.447Z,73485
2016-12-02T00:50:33.138Z,73477
2016-12-02T00:50:41.811Z,73467
2016-12-02T00:50:50.560Z,73485
2016-12-02T00:50:59.246Z,73467
2016-12-02T00:51:07.951Z,73471
2016-12-02T00:51:16.655Z,73482
2016-12-02T00:51:25.367Z,73471
2016-12-02T00:51:34.080Z,73491
2016-12-02T00:51:42.788Z,73492
2016-12-02T00:51:51.533Z,73504
2016-12-02T00:52:00.273Z,73468
2016-12-02T00:52:08.978Z,73486
2016-12-02T00:52:17.680Z,73495
2016-12-02T00:52:26.420Z,73475
2016-12-02T00:52:35.123Z,73496
2016-12-02T00:52:43.814Z,73511
2016-12-02T00:52:52.531Z,73501
2016-12-02T00:53:01.235Z,73505
2016-12-02T00:53:09.960Z,73480
2016-12-02T00:53:18.644Z,73456
2016-12-02T00:53:27.376Z,73424
2016-12-02T00:53:36.110Z,73426
2016-12-02T00:53:44.832Z,73438
2016-12-02T00:53:53.568Z,73432
2016-12-02T00:54:02.274Z,73429
2016-12-02T00:54:11.010Z,73428
2016-12-02T00:54:19.718Z,73433
2016-12-02T00:54:28.412Z,73426
2016-12-02T00:54:37.130Z,73417
2016-12-02T00:54:45.841Z,73421
2016-12-02T00:54:54.536Z,73432
2016-12-02T00:55:03.242Z,73443
2016-12-02T00:55:12.238Z,73439
2016-12-02T00:55:20.956Z,73456
2016-12-02T00:55:29.661Z,73439
2016-12-02T00:55:38.361Z,73455
2016-12-02T00:55:47.059Z,73488
2016-12-02T00:55:55.787Z,73487
2016-12-02T00:56:04.527Z,73472
2016-12-02T00:56:13.228Z,73492
2016-12-02T00:56:21.947Z,73479
2016-12-02T00:56:30.626Z,73480
2016-12-02T00:56:39.330Z,73465
2016-12-02T00:56:48.074Z,73457
2016-12-02T00:56:56.802Z,73446
2016-12-02T00:57:05.472Z,73452
2016-12-02T00:57:14.180Z,73486
2016-12-02T00:57:22.893Z,73493
2016-12-02T00:57:31.587Z,73471
2016-12-02T00:57:40.291Z,73463
2016-12-02T00:57:49.031Z,73469
2016-12-02T00:57:57.771Z,73471
2016-12-02T00:58:06.515Z,73496
2016-12-02T00:58:15.238Z,73474
2016-12-02T00:58:23.948Z,73448
2016-12-02T00:58:32.651Z,73441
2016-12-02T00:58:41.362Z,73443
2016-12-02T00:58:50.101Z,73441
2016-12-02T00:58:58.821Z,73434
2016-12-02T00:59:07.541Z,73443
2016-12-02T00:59:16.241Z,73442
2016-12-02T00:59:24.972Z,73463
2016-12-02T00:59:33.675Z,73459
2016-12-02T00:59:42.386Z,73447
2016-12-02T00:59:51.148Z,73429
2016-12-02T00:59:59.854Z,73454
2016-12-02T01:00:08.558Z,73465
2016-12-02T01:00:17.262Z,73464
2016-12-02T01:00:25.924Z,73461
2016-12-02T01:00:34.647Z,73475
2016-12-02T01:00:43.373Z,73466
2016-12-02T01:00:52.057Z,73462
2016-12-02T01:01:00.798Z,73486
2016-12-02T01:01:09.526Z,73484
2016-12-02T01:01:18.199Z,73482
2016-12-02T01:01:26.903Z,73460
2016-12-02T01:01:35.646Z,73459
2016-12-02T01:01:44.328Z,73473
2016-12-02T01:01:53.047Z,73469
2016-12-02T01:02:01.808Z,73480
2016-12-02T01:02:10.815Z,73471
2016-12-02T01:02:19.515Z,73456
2016-12-02T01:02:28.243Z,73455
2016-12-02T01:02:37.014Z,73452
2016-12-02T01:02:45.736Z,73464
2016-12-02T01:02:54.421Z,73480
2016-12-02T01:03:03.145Z,73461
2016-12-02T01:03:11.830Z,73458
2016-12-02T01:03:20.533Z,73460
2016-12-02T01:03:29.226Z,73482
2016-12-02T01:03:37.885Z,73497
2016-12-02T01:03:46.567Z,73444
2016-12-02T01:03:55.271Z,73428
2016-12-02T01:04:03.960Z,73457
2016-12-02T01:04:12.678Z,73469
2016-12-02T01:04:21.384Z,73439
2016-12-02T01:04:30.093Z,73474
2016-12-02T01:04:38.790Z,73492
2016-12-02T01:04:47.494Z,73484
2016-12-02T01:04:56.161Z,73475
2016-12-02T01:05:04.852Z,73449
2016-12-02T01:05:13.563Z,73462
2016-12-02T01:05:22.289Z,73471
2016-12-02T01:05:31.014Z,73496
2016-12-02T01:05:39.760Z,73486
2016-12-02T01:05:48.475Z,73470
2016-12-02T01:05:57.194Z,73413
2016-12-02T01:06:05.891Z,73423
2016-12-02T01:06:14.634Z,73445
2016-12-02T01:06:23.331Z,73461
2016-12-02T01:06:32.053Z,73445
2016-12-02T01:06:40.784Z,73435
2016-12-02T01:06:49.522Z,73440
2016-12-02T01:06:58.223Z,73443
2016-12-02T01:07:06.924Z,73448
2016-12-02T01:07:15.604Z,73434
2016-12-02T01:07:24.288Z,73451
2016-12-02T01:07:33.014Z,73459
2016-12-02T01:07:41.739Z,73384
2016-12-02T01:07:50.461Z,73429
2016-12-02T01:07:59.199Z,73419
2016-12-02T01:08:07.905Z,73438
2016-12-02T01:08:16.583Z,73446
2016-12-02T01:08:25.258Z,73467
2016-12-02T01:08:33.960Z,73469
2016-12-02T01:08:42.651Z,73489
2016-12-02T01:08:51.364Z,73412
2016-12-02T01:09:00.109Z,73401
2016-12-02T01:09:08.841Z,73406
2016-12-02T01:09:17.561Z,73418
2016-12-02T01:09:26.289Z,73389
2016-12-02T01:09:35.011Z,73385
2016-12-02T01:09:43.718Z,73383
2016-12-02T01:09:52.551Z,73404
2016-12-02T01:10:01.292Z,73393
2016-12-02T01:10:09.977Z,73406
2016-12-02T01:10:18.656Z,73408
2016-12-02T01:10:27.378Z,73431
2016-12-02T01:10:36.085Z,73444
2016-12-02T01:10:44.789Z,73439
2016-12-02T01:10:53.487Z,73428
2016-12-02T01:11:02.224Z,73434
2016-12-02T01:11:10.953Z,73419
2016-12-02T01:11:19.654Z,73414
2016-12-02T01:11:28.353Z,73403
2016-12-02T01:11:37.093Z,73377
2016-12-02T01:11:45.775Z,73389
2016-12-02T01:11:54.483Z,73407
2016-12-02T01:12:03.210Z,73439
2016-12-02T01:12:11.934Z,73426
2016-12-02T01:12:20.950Z,73430
2016-12-02T01:12:29.681Z,73429
2016-12-02T01:12:38.355Z,73430
2016-12-02T01:12:47.115Z,73437
2016-12-02T01:12:55.801Z,73432
2016-12-02T01:13:04.514Z,73431
2016-12-02T01:13:13.223Z,73427
2016-12-02T01:13:21.991Z,73424
2016-12-02T01:13:30.722Z,73433
2016-12-02T01:13:39.425Z,73443
2016-12-02T01:13:48.415Z,73439
2016-12-02T01:13:57.142Z,73424
2016-12-02T01:14:05.850Z,73416
2016-12-02T01:14:14.569Z,73423
2016-12-02T01:14:23.311Z,73439
2016-12-02T01:14:32.051Z,73443
2016-12-02T01:14:40.751Z,73443
2016-12-02T01:14:49.504Z,73447
2016-12-02T01:14:58.232Z,73450
2016-12-02T01:15:07.248Z,73458
2016-12-02T01:15:15.956Z,73459
2016-12-02T01:15:24.690Z,73458
2016-12-02T01:15:33.413Z,73450
2016-12-02T01:15:42.117Z,73447
2016-12-02T01:15:50.815Z,73444
2016-12-02T01:15:59.538Z,73432
2016-12-02T01:16:08.223Z,73433
2016-12-02T01:16:16.921Z,73445
2016-12-02T01:16:25.661Z,73456
2016-12-02T01:16:34.368Z,73455
2016-12-02T01:16:43.056Z,73448
2016-12-02T01:16:51.801Z,73440
2016-12-02T01:17:00.514Z,73452
2016-12-02T01:17:09.220Z,73456
2016-12-02T01:17:17.902Z,73452
2016-12-02T01:17:26.606Z,73449
2016-12-02T01:17:35.294Z,73448
2016-12-02T01:17:44.037Z,73444
2016-12-02T01:17:52.803Z,73452
2016-12-02T01:18:01.546Z,73457
2016-12-02T01:18:10.248Z,73443
2016-12-02T01:18:19.001Z,73465
2016-12-02T01:18:27.673Z,73467
2016-12-02T01:18:36.380Z,73455
2016-12-02T01:18:45.084Z,73462
2016-12-02T01:18:53.784Z,73479
2016-12-02T01:19:02.452Z,73446
2016-12-02T01:19:11.156Z,73418
2016-12-02T01:19:20.206Z,73410
2016-12-02T01:19:28.929Z,73428
2016-12-02T01:19:37.667Z,73439
2016-12-02T01:19:46.351Z,73431
2016-12-02T01:19:55.079Z,73404
2016-12-02T01:20:03.817Z,73395
2016-12-02T01:20:12.543Z,73398
2016-12-02T01:20:21.240Z,73381
2016-12-02T01:20:29.981Z,73367
2016-12-02T01:20:38.687Z,73368
2016-12-02T01:20:47.427Z,73379
2016-12-02T01:20:56.162Z,73393
2016-12-02T01:21:04.850Z,73376
2016-12-02T01:21:13.589Z,73378
2016-12-02T01:21:22.268Z,73377
2016-12-02T01:21:30.951Z,73384
2016-12-02T01:21:39.669Z,73384
2016-12-02T01:21:48.415Z,73390
2016-12-02T01:21:57.170Z,73402
2016-12-02T01:22:05.876Z,73395
2016-12-02T01:22:14.582Z,73398
2016-12-02T01:22:23.273Z,73392
2016-12-02T01:22:31.952Z,73388
2016-12-02T01:22:40.646Z,73387
2016-12-02T01:22:49.386Z,73389
2016-12-02T01:22:58.091Z,73379
2016-12-02T01:23:06.771Z,73377
2016-12-02T01:23:15.491Z,73372
2016-12-02T01:23:24.175Z,73405
2016-12-02T01:23:32.882Z,73403
2016-12-02T01:23:41.607Z,73398
2016-12-02T01:23:50.302Z,73404
2016-12-02T01:23:58.993Z,73414
2016-12-02T01:24:07.727Z,73388
2016-12-02T01:24:16.455Z,73392
2016-12-02T01:24:25.180Z,73412
2016-12-02T01:24:33.874Z,73437
2016-12-02T01:24:42.621Z,73452
2016-12-02T01:24:51.323Z,73427
2016-12-02T01:25:00.027Z,73427
2016-12-02T01:25:08.784Z,73420
2016-12-02T01:25:17.517Z,73408
2016-12-02T01:25:26.202Z,73390
2016-12-02T01:25:34.919Z,73399
2016-12-02T01:25:43.637Z,73404
2016-12-02T01:25:52.356Z,73418
2016-12-02T01:26:01.071Z,73428
2016-12-02T01:26:09.803Z,73422
2016-12-02T01:26:18.542Z,73426
2016-12-02T01:26:27.247Z,73426
2016-12-02T01:26:35.982Z,73407
2016-12-02T01:26:44.704Z,73381
2016-12-02T01:26:53.430Z,73382
2016-12-02T01:27:02.146Z,73404
2016-12-02T01:27:10.924Z,73422
2016-12-02T01:27:19.683Z,73434
2016-12-02T01:27:28.403Z,73430
2016-12-02T01:27:37.149Z,73435
2016-12-02T01:27:45.833Z,73437
2016-12-02T01:27:54.500Z,73422
2016-12-02T01:28:03.220Z,73408
2016-12-02T01:28:11.951Z,73405
2016-12-02T01:28:20.671Z,73410
2016-12-02T01:28:29.391Z,73421
2016-12-02T01:28:38.065Z,73415
2016-12-02T01:28:46.767Z,73428
2016-12-02T01:28:55.506Z,73443
2016-12-02T01:29:04.165Z,73448
2016-12-02T01:29:12.872Z,73458
2016-12-02T01:29:21.553Z,73458
2016-12-02T01:29:30.299Z,73455
2016-12-02T01:29:39.000Z,73448
2016-12-02T01:29:47.702Z,73448
2016-12-02T01:29:56.396Z,73446
2016-12-02T01:30:05.217Z,73428
2016-12-02T01:30:13.949Z,73423
2016-12-02T01:30:22.638Z,73425
2016-12-02T01:30:31.346Z,73442
2016-12-02T01:30:40.045Z,73438
2016-12-02T01:30:48.793Z,73442
2016-12-02T01:30:57.556Z,73430
2016-12-02T01:31:06.278Z,73399
2016-12-02T01:31:14.970Z,73411
2016-12-02T01:31:23.951Z,73420
2016-12-02T01:31:32.681Z,73425
2016-12-02T01:31:41.399Z,73413
2016-12-02T01:31:50.101Z,73394
2016-12-02T01:31:58.822Z,73386
2016-12-02T01:32:07.511Z,73392
2016-12-02T01:32:16.209Z,73403
2016-12-02T01:32:24.946Z,73418
2016-12-02T01:32:33.692Z,73412
2016-12-02T01:32:42.402Z,73412
2016-12-02T01:32:51.105Z,73424
2016-12-02T01:32:59.809Z,73425
2016-12-02T01:33:08.488Z,73414
2016-12-02T01:33:17.218Z,73424
2016-12-02T01:33:25.973Z,73433
2016-12-02T01:33:34.726Z,73445
2016-12-02T01:33:43.440Z,73440
2016-12-02T01:33:52.141Z,73477
2016-12-02T01:34:01.128Z,73412
2016-12-02T01:34:09.830Z,73417
2016-12-02T01:34:18.531Z,73433
2016-12-02T01:34:27.282Z,73445
2016-12-02T01:34:35.976Z,73444
2016-12-02T01:34:44.746Z,73440
2016-12-02T01:34:53.511Z,73427
2016-12-02T01:35:02.233Z,73411
2016-12-02T01:35:10.961Z,73393
2016-12-02T01:35:19.661Z,73386
2016-12-02T01:35:28.374Z,73368
2016-12-02T01:35:37.093Z,73366
2016-12-02T01:35:45.838Z,73383
2016-12-02T01:35:54.533Z,73380
2016-12-02T01:36:03.238Z,73380
2016-12-02T01:36:12.264Z,73362
2016-12-02T01:36:21.010Z,73339
2016-12-02T01:36:29.713Z,73365
2016-12-02T01:36:38.372Z,73397
2016-12-02T01:36:47.062Z,73399
2016-12-02T01:36:55.757Z,73408
2016-12-02T01:37:04.446Z,73410
2016-12-02T01:37:13.145Z,73403
2016-12-02T01:37:21.876Z,73383
2016-12-02T01:37:30.622Z,73380
2016-12-02T01:37:39.307Z,73384
2016-12-02T01:37:48.027Z,73386
2016-12-02T01:37:56.722Z,73394
2016-12-02T01:38:05.411Z,73396
2016-12-02T01:38:14.128Z,73394
2016-12-02T01:38:22.861Z,73398
2016-12-02T01:38:31.594Z,73411
2016-12-02T01:38:40.321Z,73411
2016-12-02T01:38:49.021Z,73370
2016-12-02T01:38:57.719Z,73380
2016-12-02T01:39:06.747Z,73384
2016-12-02T01:39:15.490Z,73382
2016-12-02T01:39:24.227Z,73394
2016-12-02T01:39:32.915Z,73406
2016-12-02T01:39:41.636Z,73384
2016-12-02T01:39:50.399Z,73404
2016-12-02T01:39:59.136Z,73372
2016-12-02T01:40:07.857Z,73360
2016-12-02T01:40:16.537Z,73342
2016-12-02T01:40:25.241Z,73350
2016-12-02T01:40:33.955Z,73368
2016-12-02T01:40:42.704Z,73363
2016-12-02T01:40:51.425Z,73372
2016-12-02T01:41:00.136Z,73379
2016-12-02T01:41:08.847Z,73373
2016-12-02T01:41:17.520Z,73391
2016-12-02T01:41:26.242Z,73392
2016-12-02T01:41:34.959Z,73400
2016-12-02T01:41:43.691Z,73405
2016-12-02T01:41:52.401Z,73403
2016-12-02T01:42:01.102Z,73411
2016-12-02T01:42:09.795Z,73413
2016-12-02T01:42:18.496Z,73425
2016-12-02T01:42:27.173Z,73410
2016-12-02T01:42:35.881Z,73413
2016-12-02T01:42:44.575Z,73404
2016-12-02T01:42:53.302Z,73394
2016-12-02T01:43:02.023Z,73407
2016-12-02T01:43:10.701Z,73423
2016-12-02T01:43:19.430Z,73420
2016-12-02T01:43:28.168Z,73431
2016-12-02T01:43:36.894Z,73448
2016-12-02T01:43:45.623Z,73428
2016-12-02T01:43:54.364Z,73438
2016-12-02T01:44:03.108Z,73438
2016-12-02T01:44:11.811Z,73460
2016-12-02T01:44:20.473Z,73449
2016-12-02T01:44:29.172Z,73417
2016-12-02T01:44:37.861Z,73420
2016-12-02T01:44:46.581Z,73385
2016-12-02T01:44:55.289Z,73395
2016-12-02T01:45:04.032Z,73389
2016-12-02T01:45:12.750Z,73401
2016-12-02T01:45:21.453Z,73400
2016-12-02T01:45:30.140Z,73377
2016-12-02T01:45:39.165Z,73393
2016-12-02T01:45:47.880Z,73403
2016-12-02T01:45:56.561Z,73409
2016-12-02T01:46:05.264Z,73406
2016-12-02T01:46:13.951Z,73412
2016-12-02T01:46:22.682Z,73401
2016-12-02T01:46:31.342Z,73391
2016-12-02T01:46:40.072Z,73403
2016-12-02T01:46:48.796Z,73423
2016-12-02T01:46:57.531Z,73438
2016-12-02T01:47:06.209Z,73414
2016-12-02T01:47:14.933Z,73382
2016-12-02T01:47:23.658Z,73396
2016-12-02T01:47:32.377Z,73399
2016-12-02T01:47:41.080Z,73419
2016-12-02T01:47:49.780Z,73425
2016-12-02T01:47:58.503Z,73425
2016-12-02T01:48:07.204Z,73412
2016-12-02T01:48:15.917Z,73388
2016-12-02T01:48:24.632Z,73397
2016-12-02T01:48:33.335Z,73400
2016-12-02T01:48:42.054Z,73407
2016-12-02T01:48:50.784Z,73403
2016-12-02T01:48:59.513Z,73404
2016-12-02T01:49:08.227Z,73400
2016-12-02T01:49:16.915Z,73381
2016-12-02T01:49:25.602Z,73389
2016-12-02T01:49:34.361Z,73412
2016-12-02T01:49:43.040Z,73431
2016-12-02T01:49:51.764Z,73432
2016-12-02T01:50:00.484Z,73426
2016-12-02T01:50:09.206Z,73415
2016-12-02T01:50:17.906Z,73421
2016-12-02T01:50:26.635Z,73457
2016-12-02T01:50:35.335Z,73469
2016-12-02T01:50:44.041Z,73441
2016-12-02T01:50:52.728Z,73435
2016-12-02T01:51:01.467Z,73448
2016-12-02T01:51:10.184Z,73461
2016-12-02T01:51:18.947Z,73460
2016-12-02T01:51:27.664Z,73443
2016-12-02T01:51:36.340Z,73436
2016-12-02T01:51:45.064Z,73449
2016-12-02T01:51:53.765Z,73450
2016-12-02T01:52:02.451Z,73441
2016-12-02T01:52:11.187Z,73442
2016-12-02T01:52:19.848Z,73453